createdAt,value
2023-08-15T00:01:56.487Z,98712.94
2023-08-15T00:04:23.398Z,98719.94
2023-08-15T00:06:50.077Z,98709.72
2023-08-15T00:09:16.932Z,98713.09
2023-08-15T00:11:43.560Z,98709.16
2023-08-15T00:14:10.768Z,98708.25
2023-08-15T00:16:37.470Z,98699.53
2023-08-15T00:19:04.378Z,98705.59
2023-08-15T00:21:31.019Z,98696.16
2023-08-15T00:23:57.685Z,98695.28
2023-08-15T00:26:24.340Z,98690.16
2023-08-15T00:28:50.983Z,98689.41
2023-08-15T00:31:17.694Z,98687.06
2023-08-15T00:33:44.475Z,98689.47
2023-08-15T00:36:11.098Z,98693.47
2023-08-15T00:38:38.924Z,98698.84
2023-08-15T00:41:05.569Z,98703.41
2023-08-15T00:43:32.203Z,98692.78
2023-08-15T00:46:03.519Z,98696.34
2023-08-15T00:48:32.485Z,98690.97
2023-08-15T00:51:01.718Z,98687.63
2023-08-15T00:53:33.158Z,98677.44
2023-08-15T00:56:00.471Z,98679.50
2023-08-15T00:58:28.904Z,98687.19
2023-08-15T01:00:55.981Z,98676.22
2023-08-15T01:03:23.006Z,98673.63
2023-08-15T01:05:50.514Z,98660.09
2023-08-15T01:08:17.883Z,98660.25
2023-08-15T01:10:45.145Z,98656.44
2023-08-15T01:14:01.601Z,98668.47
2023-08-15T01:16:37.559Z,98673.31
2023-08-15T01:19:38.512Z,98669.53
2023-08-15T01:22:18.592Z,98662.78
2023-08-15T01:24:46.556Z,98663.53
2023-08-15T01:27:13.405Z,98660.50
2023-08-15T01:29:40.043Z,98665.53
2023-08-15T01:32:43.162Z,98663.44
2023-08-15T01:35:32.525Z,98666.91
2023-08-15T01:38:08.499Z,98672.34
2023-08-15T01:40:36.799Z,98672.19
2023-08-15T01:43:05.465Z,98664.19
2023-08-15T01:45:32.559Z,98665.34
2023-08-15T01:47:59.470Z,98659.97
2023-08-15T01:50:26.350Z,98667.69
2023-08-15T01:52:53.019Z,98656.97
2023-08-15T01:55:19.791Z,98659.78
2023-08-15T01:57:47.703Z,98650.06
2023-08-15T02:00:14.667Z,98652.34
2023-08-15T02:02:41.361Z,98655.41
2023-08-15T02:05:08.381Z,98647.91
2023-08-15T02:07:35.681Z,98645.28
2023-08-15T02:10:02.296Z,98655.97
2023-08-15T02:12:28.925Z,98652.63
2023-08-15T02:14:55.641Z,98650.56
2023-08-15T02:17:22.581Z,98644.16
2023-08-15T02:19:49.552Z,98635.44
2023-08-15T02:22:16.465Z,98641.56
2023-08-15T02:24:43.096Z,98652.31
2023-08-15T02:27:09.720Z,98648.09
2023-08-15T02:29:36.432Z,98650.56
2023-08-15T02:32:04.209Z,98649.22
2023-08-15T02:34:30.872Z,98651.59
2023-08-15T02:36:57.565Z,98651.72
2023-08-15T02:39:24.234Z,98643.63
2023-08-15T02:41:50.865Z,98653.75
2023-08-15T02:44:17.492Z,98661.00
2023-08-15T02:46:44.200Z,98655.31
2023-08-15T02:49:10.964Z,98653.03
2023-08-15T02:51:37.593Z,98659.66
2023-08-15T02:54:04.654Z,98661.78
2023-08-15T02:56:31.400Z,98658.84
2023-08-15T02:58:58.057Z,98654.44
2023-08-15T03:01:24.833Z,98667.16
2023-08-15T03:03:51.470Z,98677.19
2023-08-15T03:06:18.125Z,98689.34
2023-08-15T03:08:46.636Z,98690.84
2023-08-15T03:11:13.981Z,98704.28
2023-08-15T03:13:40.669Z,98717.19
2023-08-15T03:16:07.715Z,98699.47
2023-08-15T03:18:34.390Z,98705.00
2023-08-15T03:21:04.355Z,98711.34
2023-08-15T03:23:31.528Z,98706.41
2023-08-15T03:26:03.182Z,98717.56
2023-08-15T03:28:30.283Z,98722.03
2023-08-15T03:30:57.646Z,98730.91
2023-08-15T03:33:25.192Z,98746.28
2023-08-15T03:35:52.511Z,98744.06
2023-08-15T03:38:21.648Z,98748.50
2023-08-15T03:40:52.923Z,98741.66
2023-08-15T03:43:19.556Z,98744.03
2023-08-15T03:45:47.534Z,98744.91
2023-08-15T03:48:14.190Z,98767.25
2023-08-15T03:50:40.826Z,98783.88
2023-08-15T03:53:08.862Z,98760.06
2023-08-15T03:55:37.364Z,98676.84
2023-08-15T03:58:04.285Z,98665.03
2023-08-15T04:00:30.984Z,98674.47
2023-08-15T04:02:57.624Z,98679.28
2023-08-15T04:05:25.286Z,98667.53
2023-08-15T04:07:51.988Z,98702.03
2023-08-15T04:10:18.782Z,98704.91
2023-08-15T04:12:45.850Z,98728.41
2023-08-15T04:15:12.516Z,98763.53
2023-08-15T04:17:39.562Z,98776.75
2023-08-15T04:20:08.206Z,98786.69
2023-08-15T04:22:37.238Z,98802.81
2023-08-15T04:25:04.982Z,98787.06
2023-08-15T04:27:31.640Z,98780.84
2023-08-15T04:29:58.523Z,98783.19
2023-08-15T04:32:25.155Z,98780.44
2023-08-15T04:34:51.808Z,98775.94
2023-08-15T04:37:18.613Z,98794.38
2023-08-15T04:39:45.746Z,98821.25
2023-08-15T04:42:12.367Z,98831.28
2023-08-15T04:44:39.007Z,98831.59
2023-08-15T04:47:05.935Z,98812.19
2023-08-15T04:49:34.606Z,98827.88
2023-08-15T04:52:01.817Z,98830.50
2023-08-15T04:54:28.775Z,98843.00
2023-08-15T04:56:55.438Z,98855.44
2023-08-15T04:59:22.105Z,98850.72
2023-08-15T05:01:48.765Z,98860.25
2023-08-15T05:04:15.471Z,98876.72
2023-08-15T05:06:42.124Z,98861.91
2023-08-15T05:09:08.751Z,98839.91
2023-08-15T05:11:35.831Z,98780.91
2023-08-15T05:14:02.903Z,98752.53
2023-08-15T05:16:29.658Z,98731.22
2023-08-15T05:18:56.319Z,98732.09
2023-08-15T05:21:22.976Z,98733.59
2023-08-15T05:23:50.130Z,98721.13
2023-08-15T05:26:16.791Z,98706.41
2023-08-15T05:28:45.435Z,98699.47
2023-08-15T05:31:15.863Z,98695.41
2023-08-15T05:33:42.504Z,98707.81
2023-08-15T05:36:09.141Z,98705.97
2023-08-15T05:38:37.301Z,98719.84
2023-08-15T05:41:04.401Z,98725.59
2023-08-15T05:43:31.101Z,98716.22
2023-08-15T05:45:58.137Z,98706.28
2023-08-15T05:48:24.739Z,98719.94
2023-08-15T05:50:51.371Z,98707.63
2023-08-15T05:53:18.061Z,98723.31
2023-08-15T05:55:44.747Z,98725.72
2023-08-15T05:58:11.364Z,98730.00
2023-08-15T06:00:39.214Z,98739.00
2023-08-15T06:03:06.621Z,98752.03
2023-08-15T06:05:33.689Z,98756.25
2023-08-15T06:08:00.386Z,98767.47
2023-08-15T06:10:27.137Z,98782.13
2023-08-15T06:12:53.993Z,98800.53
2023-08-15T06:15:23.332Z,98811.59
2023-08-15T06:17:49.983Z,98808.19
2023-08-15T06:20:16.861Z,98805.13
2023-08-15T06:22:43.476Z,98816.84
2023-08-15T06:25:10.123Z,98818.97
2023-08-15T06:27:36.855Z,98820.91
2023-08-15T06:30:03.835Z,98829.63
2023-08-15T06:32:35.001Z,98829.53
2023-08-15T06:35:04.760Z,98841.38
2023-08-15T06:37:31.389Z,98830.69
2023-08-15T06:39:57.980Z,98816.88
2023-08-15T06:42:24.660Z,98825.78
2023-08-15T06:45:01.988Z,98823.28
2023-08-15T06:47:28.671Z,98813.72
2023-08-15T06:49:55.328Z,98819.09
2023-08-15T06:52:21.996Z,98821.66
2023-08-15T06:54:49.214Z,98818.72
2023-08-15T06:57:15.840Z,98815.31
2023-08-15T06:59:42.522Z,98812.69
2023-08-15T07:02:09.183Z,98808.06
2023-08-15T07:04:41.324Z,98812.19
2023-08-15T07:07:12.832Z,98805.41
2023-08-15T07:09:39.800Z,98803.44
2023-08-15T07:12:07.193Z,98799.66
2023-08-15T07:14:34.213Z,98799.91
2023-08-15T07:17:02.377Z,98809.13
2023-08-15T07:19:29.082Z,98803.94
2023-08-15T07:21:55.842Z,98807.47
2023-08-15T07:24:22.605Z,98812.78
2023-08-15T07:26:49.316Z,98805.75
2023-08-15T07:29:16.543Z,98808.88
2023-08-15T07:31:43.254Z,98802.28
2023-08-15T07:34:10.085Z,98799.03
2023-08-15T07:36:37.741Z,98807.59
2023-08-15T07:39:05.112Z,98811.72
2023-08-15T07:41:33.056Z,98810.38
2023-08-15T07:43:59.708Z,98820.09
2023-08-15T07:46:26.400Z,98825.59
2023-08-15T07:48:53.187Z,98837.75
2023-08-15T07:51:20.480Z,98832.16
2023-08-15T07:53:47.491Z,98834.22
2023-08-15T07:56:14.152Z,98827.44
2023-08-15T07:58:41.055Z,98832.34
2023-08-15T08:01:07.824Z,98831.81
2023-08-15T08:03:36.485Z,98829.72
2023-08-15T08:06:05.814Z,98829.84
2023-08-15T08:08:36.191Z,98837.81
2023-08-15T08:11:02.921Z,98834.22
2023-08-15T08:13:29.599Z,98835.94
2023-08-15T08:15:56.306Z,98840.91
2023-08-15T08:18:23.015Z,98848.69
2023-08-15T08:20:50.812Z,98835.41
2023-08-15T08:23:17.644Z,98830.94
2023-08-15T08:25:44.338Z,98840.75
2023-08-15T08:28:11.114Z,98843.44
2023-08-15T08:30:38.766Z,98838.19
2023-08-15T08:33:05.793Z,98848.81
2023-08-15T08:35:32.421Z,98842.81
2023-08-15T08:37:59.053Z,98839.34
2023-08-15T08:40:25.744Z,98847.69
2023-08-15T08:42:52.877Z,98841.50
2023-08-15T08:45:25.071Z,98835.19
2023-08-15T08:47:53.965Z,98840.91
2023-08-15T08:50:20.794Z,98833.97
2023-08-15T08:52:50.455Z,98838.34
2023-08-15T08:55:18.778Z,98845.06
2023-08-15T08:57:54.501Z,98852.97
2023-08-15T09:00:27.365Z,98842.03
2023-08-15T09:02:54.743Z,98835.06
2023-08-15T09:05:21.978Z,98831.38
2023-08-15T09:07:52.042Z,98832.50
2023-08-15T09:10:18.828Z,98843.34
2023-08-15T09:12:48.001Z,98841.91
2023-08-15T09:15:14.880Z,98848.41
2023-08-15T09:17:44.240Z,98850.78
2023-08-15T09:20:17.113Z,98860.41
2023-08-15T09:22:47.330Z,98853.22
2023-08-15T09:25:16.725Z,98863.59
2023-08-15T09:27:44.855Z,98859.94
2023-08-15T09:30:14.290Z,98856.47
2023-08-15T09:32:43.121Z,98854.88
2023-08-15T09:35:11.617Z,98864.66
2023-08-15T09:37:50.881Z,98867.53
2023-08-15T09:40:18.659Z,98860.84
2023-08-15T09:42:46.414Z,98843.16
2023-08-15T09:45:17.794Z,98854.81
2023-08-15T09:47:46.212Z,98852.00
2023-08-15T09:50:15.537Z,98846.41
2023-08-15T09:52:45.431Z,98851.25
2023-08-15T09:55:16.095Z,98863.72
2023-08-15T09:57:44.825Z,98854.94
2023-08-15T10:00:14.674Z,98856.00
2023-08-15T10:03:20.008Z,98867.94
2023-08-15T10:05:54.220Z,98877.19
2023-08-15T10:08:21.781Z,98873.13
2023-08-15T10:10:53.265Z,98882.91
2023-08-15T10:13:34.524Z,98870.63
2023-08-15T10:16:04.943Z,98874.88
2023-08-15T10:18:34.416Z,98875.44
2023-08-15T10:21:01.991Z,98872.72
2023-08-15T10:23:34.959Z,98867.78
2023-08-15T10:26:02.710Z,98864.06
2023-08-15T10:28:34.352Z,98857.78
2023-08-15T10:31:09.521Z,98852.97
2023-08-15T10:33:38.414Z,98840.66
2023-08-15T10:36:05.004Z,98844.81
2023-08-15T10:38:40.027Z,98847.41
2023-08-15T10:41:18.735Z,98860.16
2023-08-15T10:43:50.296Z,98867.97
2023-08-15T10:46:22.190Z,98867.19
2023-08-15T10:51:26.693Z,98863.13
2023-08-15T10:53:55.438Z,98860.31
2023-08-15T10:56:24.494Z,98855.72
2023-08-15T10:58:52.309Z,98855.84
2023-08-15T11:01:28.183Z,98861.91
2023-08-15T11:04:00.351Z,98863.38
2023-08-15T11:06:27.133Z,98870.97
2023-08-15T11:08:56.823Z,98872.19
2023-08-15T11:11:23.690Z,98881.69
2023-08-15T11:13:52.771Z,98887.81
2023-08-15T11:16:23.975Z,98888.09
2023-08-15T11:18:51.270Z,98901.31
2023-08-15T11:21:19.819Z,98906.13
2023-08-15T11:23:49.309Z,98904.66
2023-08-15T11:26:17.532Z,98913.31
2023-08-15T11:28:45.129Z,98921.25
2023-08-15T11:33:45.032Z,98931.31
2023-08-15T11:36:12.367Z,98938.69
2023-08-15T11:38:40.231Z,98945.81
2023-08-15T11:41:06.999Z,98941.28
2023-08-15T11:43:35.023Z,98939.84
2023-08-15T11:46:06.365Z,98929.44
2023-08-15T11:48:34.279Z,98921.56
2023-08-15T11:51:01.972Z,98908.91
2023-08-15T11:53:28.825Z,98904.66
2023-08-15T11:55:55.590Z,98885.06
2023-08-15T11:58:33.808Z,98888.75
2023-08-15T12:01:11.070Z,98891.97
2023-08-15T12:03:38.452Z,98899.38
2023-08-15T12:06:11.814Z,98897.00
2023-08-15T12:08:43.659Z,98914.47
2023-08-15T12:11:13.740Z,98920.78
2023-08-15T12:13:42.019Z,98926.28
2023-08-15T12:16:10.851Z,98922.19
2023-08-15T12:18:37.891Z,98912.00
2023-08-15T12:21:05.685Z,98913.38
2023-08-15T12:23:32.542Z,98898.56
2023-08-15T12:25:59.234Z,98904.31
2023-08-15T12:28:28.879Z,98905.97
2023-08-15T12:30:56.290Z,98917.78
2023-08-15T12:33:35.680Z,98918.63
2023-08-15T12:36:08.429Z,98923.84
2023-08-15T12:38:35.146Z,98929.03
2023-08-15T12:41:02.038Z,98926.44
2023-08-15T12:43:28.788Z,98925.72
2023-08-15T12:45:55.870Z,98930.88
2023-08-15T12:48:22.719Z,98939.44
2023-08-15T12:50:49.357Z,98944.31
2023-08-15T12:53:16.084Z,98939.16
2023-08-15T12:55:42.732Z,98945.38
2023-08-15T12:58:09.447Z,98934.38
2023-08-15T13:00:37.414Z,98934.88
2023-08-15T13:03:05.899Z,98938.41
2023-08-15T13:05:32.637Z,98943.25
2023-08-15T13:07:59.373Z,98951.22
2023-08-15T13:10:26.099Z,98946.94
2023-08-15T13:12:53.138Z,98951.56
2023-08-15T13:15:19.849Z,98962.91
2023-08-15T13:17:46.822Z,98946.16
2023-08-15T13:20:15.473Z,98932.44
2023-08-15T13:22:42.129Z,98944.06
2023-08-15T13:25:09.308Z,98948.06
2023-08-15T13:27:35.945Z,98953.28
2023-08-15T13:30:02.588Z,98950.63
2023-08-15T13:32:29.229Z,98952.41
2023-08-15T13:34:55.853Z,98960.94
2023-08-15T13:37:22.628Z,98977.38
2023-08-15T13:39:49.369Z,98978.69
2023-08-15T13:42:34.100Z,98958.22
2023-08-15T13:45:05.939Z,98959.84
2023-08-15T13:47:33.530Z,98959.84
2023-08-15T13:50:00.226Z,98970.13
2023-08-15T13:52:26.879Z,98961.91
2023-08-15T13:54:53.574Z,98964.31
2023-08-15T13:57:20.486Z,98972.66
2023-08-15T13:59:47.375Z,98961.53
2023-08-15T14:02:14.020Z,98956.16
2023-08-15T14:04:40.704Z,98944.84
2023-08-15T14:07:07.335Z,98945.28
2023-08-15T14:09:33.958Z,98950.72
2023-08-15T14:12:00.637Z,98948.56
2023-08-15T14:14:27.275Z,98940.63
2023-08-15T14:16:54.105Z,98939.91
2023-08-15T14:19:20.777Z,98939.22
2023-08-15T14:21:47.459Z,98942.00
2023-08-15T14:24:15.690Z,98927.16
2023-08-15T14:26:51.233Z,98924.38
2023-08-15T14:29:18.141Z,98916.13
2023-08-15T14:31:44.768Z,98918.13
2023-08-15T14:34:11.381Z,98926.09
2023-08-15T14:36:38.010Z,98919.25
2023-08-15T14:39:04.849Z,98929.59
2023-08-15T14:41:34.358Z,98916.41
2023-08-15T14:44:01.044Z,98921.88
2023-08-15T14:46:27.792Z,98915.38
2023-08-15T14:48:54.748Z,98923.97
2023-08-15T14:51:22.495Z,98920.94
2023-08-15T14:53:49.158Z,98914.78
2023-08-15T14:56:17.386Z,98911.31
2023-08-15T14:58:45.740Z,98920.03
2023-08-15T15:01:13.193Z,98911.38
2023-08-15T15:03:39.982Z,98909.66
2023-08-15T15:06:06.774Z,98914.91
2023-08-15T15:08:33.466Z,98914.97
2023-08-15T15:11:01.027Z,98913.81
2023-08-15T15:13:27.645Z,98915.69
2023-08-15T15:15:54.902Z,98915.69
2023-08-15T15:18:23.117Z,98913.00
2023-08-15T15:20:50.265Z,98915.06
2023-08-15T15:23:17.354Z,98923.03
2023-08-15T15:25:48.362Z,98916.19
2023-08-15T15:28:15.547Z,98914.50
2023-08-15T15:30:42.258Z,98906.41
2023-08-15T15:33:08.917Z,98908.63
2023-08-15T15:35:35.650Z,98915.41
2023-08-15T15:38:02.746Z,98905.50
2023-08-15T15:40:29.400Z,98908.34
2023-08-15T15:42:56.078Z,98906.34
2023-08-15T15:45:22.739Z,98899.63
2023-08-15T15:47:49.545Z,98905.53
2023-08-15T15:50:20.615Z,98913.72
2023-08-15T15:52:48.286Z,98915.19
2023-08-15T15:55:20.556Z,98920.44
2023-08-15T15:57:47.237Z,98925.78
2023-08-15T16:00:16.976Z,98931.03
2023-08-15T16:02:44.787Z,98939.00
2023-08-15T16:05:12.560Z,98940.06
2023-08-15T16:07:39.624Z,98941.47
2023-08-15T16:10:07.316Z,98946.75
2023-08-15T16:12:34.078Z,98949.38
2023-08-15T16:15:01.584Z,98953.97
2023-08-15T16:17:28.268Z,98953.41
2023-08-15T16:19:56.442Z,98951.28
2023-08-15T16:22:23.548Z,98965.59
2023-08-15T16:24:50.448Z,98961.69
2023-08-15T16:27:17.190Z,98958.03
2023-08-15T16:29:44.557Z,98959.34
2023-08-15T16:32:15.733Z,98958.22
2023-08-15T16:34:43.684Z,98959.34
2023-08-15T16:37:10.359Z,98960.94
2023-08-15T16:39:37.041Z,98958.13
2023-08-15T16:42:03.943Z,98948.09
2023-08-15T16:44:33.404Z,98946.56
2023-08-15T16:47:00.189Z,98945.94
2023-08-15T16:49:26.945Z,98942.03
2023-08-15T16:51:53.659Z,98948.91
2023-08-15T16:54:20.308Z,98953.72
2023-08-15T16:56:47.123Z,98950.59
2023-08-15T16:59:14.089Z,98943.53
2023-08-15T17:01:41.364Z,98948.78
2023-08-15T17:04:08.187Z,98950.19
2023-08-15T17:06:35.542Z,98948.09
2023-08-15T17:09:02.520Z,98939.09
2023-08-15T17:11:29.140Z,98948.50
2023-08-15T17:13:55.843Z,98953.22
2023-08-15T17:16:22.538Z,98953.56
2023-08-15T17:18:49.182Z,98957.38
2023-08-15T17:21:15.816Z,98956.63
2023-08-15T17:23:44.208Z,98966.72
2023-08-15T17:26:10.896Z,98968.22
2023-08-15T17:28:37.739Z,98971.91
2023-08-15T17:31:06.189Z,98974.34
2023-08-15T17:33:32.904Z,98977.38
2023-08-15T17:36:00.039Z,98986.84
2023-08-15T17:38:27.403Z,98994.03
2023-08-15T17:40:54.065Z,98992.66
2023-08-15T17:43:20.756Z,98996.09
2023-08-15T17:45:47.448Z,99004.06
2023-08-15T17:48:14.137Z,99004.88
2023-08-15T17:50:43.337Z,99004.16
2023-08-15T17:53:09.990Z,99004.94
2023-08-15T17:55:37.336Z,98997.53
2023-08-15T17:58:04.176Z,99001.84
2023-08-15T18:00:30.923Z,99009.81
2023-08-15T18:02:57.907Z,99017.88
2023-08-15T18:05:26.841Z,99025.69
2023-08-15T18:07:53.472Z,99019.16
2023-08-15T18:10:25.790Z,99028.34
2023-08-15T18:12:52.659Z,99031.75
2023-08-15T18:15:19.338Z,99031.53
2023-08-15T18:17:46.467Z,99027.00
2023-08-15T18:20:13.230Z,99039.84
2023-08-15T18:22:39.847Z,99038.28
2023-08-15T18:25:06.891Z,99043.16
2023-08-15T18:27:33.493Z,99048.50
2023-08-15T18:30:02.054Z,99047.31
2023-08-15T18:32:28.756Z,99053.09
2023-08-15T18:34:55.430Z,99055.44
2023-08-15T18:37:22.130Z,99057.00
2023-08-15T18:39:48.758Z,99060.44
2023-08-15T18:42:15.360Z,99055.03
2023-08-15T18:44:43.468Z,99066.84
2023-08-15T18:47:10.326Z,99071.69
2023-08-15T18:49:37.055Z,99069.53
2023-08-15T18:52:04.035Z,99079.72
2023-08-15T18:54:30.642Z,99074.88
2023-08-15T18:56:57.301Z,99079.44
2023-08-15T18:59:24.028Z,99086.63
2023-08-15T19:01:51.283Z,99080.06
2023-08-15T19:04:18.052Z,99083.13
2023-08-15T19:06:44.714Z,99086.91
2023-08-15T19:09:11.437Z,99085.16
2023-08-15T19:11:38.658Z,99083.50
2023-08-15T19:14:05.374Z,99075.56
2023-08-15T19:16:31.996Z,99081.53
2023-08-15T19:19:04.304Z,99084.56
2023-08-15T19:21:31.812Z,99079.25
2023-08-15T19:23:58.513Z,99080.13
2023-08-15T19:26:25.185Z,99078.56
2023-08-15T19:28:51.876Z,99081.09
2023-08-15T19:31:18.614Z,99082.19
2023-08-15T19:33:47.698Z,99075.50
2023-08-15T19:36:14.319Z,99080.72
2023-08-15T19:38:47.193Z,99077.91
2023-08-15T19:41:14.506Z,99082.19
2023-08-15T19:43:41.503Z,99075.28
2023-08-15T19:46:08.369Z,99084.88
2023-08-15T19:48:35.388Z,99072.97
2023-08-15T19:51:02.012Z,99077.00
2023-08-15T19:53:29.193Z,99075.91
2023-08-15T19:55:55.912Z,99077.78
2023-08-15T19:58:22.571Z,99075.69
2023-08-15T20:00:49.554Z,99080.03
2023-08-15T20:03:16.557Z,99073.09
2023-08-15T20:05:43.326Z,99075.09
2023-08-15T20:08:10.086Z,99080.88
2023-08-15T20:10:36.710Z,99077.91
2023-08-15T20:13:03.562Z,99080.38
2023-08-15T20:15:30.706Z,99075.50
2023-08-15T20:17:57.531Z,99079.22
2023-08-15T20:20:24.296Z,99082.78
2023-08-15T20:22:50.916Z,99083.19
2023-08-15T20:25:17.798Z,99079.88
2023-08-15T20:27:44.476Z,99074.88
2023-08-15T20:30:11.967Z,99084.22
2023-08-15T20:32:38.658Z,99083.16
2023-08-15T20:35:07.200Z,99078.38
2023-08-15T20:37:34.284Z,99076.53
2023-08-15T20:40:00.988Z,99081.81
2023-08-15T20:42:27.619Z,99085.47
2023-08-15T20:44:54.278Z,99078.81
2023-08-15T20:47:20.907Z,99074.00
2023-08-15T20:49:47.560Z,99079.47
2023-08-15T20:52:14.173Z,99074.28
2023-08-15T20:54:40.799Z,99067.59
2023-08-15T20:57:07.437Z,99075.16
2023-08-15T20:59:34.244Z,99077.75
2023-08-15T21:02:02.093Z,99076.56
2023-08-15T21:04:28.851Z,99081.75
2023-08-15T21:06:55.644Z,99081.75
2023-08-15T21:09:23.163Z,99086.63
2023-08-15T21:11:49.778Z,99090.72
2023-08-15T21:14:16.466Z,99091.38
2023-08-15T21:16:43.505Z,99094.41
2023-08-15T21:19:10.293Z,99089.00
2023-08-15T21:21:36.959Z,99093.03
2023-08-15T21:24:04.047Z,99096.28
2023-08-15T21:26:30.825Z,99092.34
2023-08-15T21:28:57.433Z,99093.28
2023-08-15T21:31:24.309Z,99101.09
2023-08-15T21:33:50.942Z,99105.38
2023-08-15T21:36:17.580Z,99100.72
2023-08-15T21:38:44.228Z,99099.44
2023-08-15T21:41:10.899Z,99102.78
2023-08-15T21:43:37.735Z,99103.34
2023-08-15T21:46:04.575Z,99104.91
2023-08-15T21:48:31.324Z,99108.91
2023-08-15T21:50:57.980Z,99108.34
2023-08-15T21:53:24.831Z,99121.81
2023-08-15T21:55:51.490Z,99123.19
2023-08-15T21:58:18.343Z,99121.16
2023-08-15T22:00:45.057Z,99115.75
2023-08-15T22:03:12.611Z,99118.53
2023-08-15T22:05:39.303Z,99123.53
2023-08-15T22:08:06.286Z,99127.56
2023-08-15T22:10:32.976Z,99120.91
2023-08-15T22:12:59.586Z,99128.53
2023-08-15T22:15:27.932Z,99120.19
2023-08-15T22:18:00.922Z,99123.59
2023-08-15T22:20:39.681Z,99121.47
2023-08-15T22:23:06.319Z,99115.59
2023-08-15T22:25:32.985Z,99129.75
2023-08-15T22:30:26.419Z,99129.59
2023-08-15T22:32:53.479Z,99135.56
2023-08-15T22:35:24.840Z,99135.34
2023-08-15T22:37:52.655Z,99133.53
2023-08-15T22:40:19.945Z,99133.03
2023-08-15T22:42:46.580Z,99132.06
2023-08-15T22:45:13.322Z,99127.09
2023-08-15T22:47:41.062Z,99120.06
2023-08-15T22:50:08.200Z,99113.91
2023-08-15T22:52:34.808Z,99122.56
2023-08-15T22:55:01.434Z,99121.19
2023-08-15T22:57:28.073Z,99110.22
2023-08-15T22:59:54.718Z,99117.47
2023-08-15T23:02:21.506Z,99111.16
2023-08-15T23:04:51.512Z,99107.66
2023-08-15T23:07:18.994Z,99113.53
2023-08-15T23:09:45.725Z,99095.78
2023-08-15T23:12:12.381Z,99095.59
2023-08-15T23:14:38.984Z,99089.53
2023-08-15T23:17:05.627Z,99083.34
2023-08-15T23:19:32.340Z,99080.56
2023-08-15T23:21:59.042Z,99084.50
2023-08-15T23:24:25.679Z,99083.19
2023-08-15T23:26:52.956Z,99089.53
2023-08-15T23:29:19.574Z,99092.50
2023-08-15T23:31:46.217Z,99095.78
2023-08-15T23:34:12.896Z,99096.16
2023-08-15T23:36:39.744Z,99094.94
2023-08-15T23:39:06.587Z,99093.13
2023-08-15T23:41:33.243Z,99088.50
2023-08-15T23:44:00.989Z,99088.03
2023-08-15T23:46:27.675Z,99085.41
2023-08-15T23:48:54.398Z,99090.06
2023-08-15T23:51:21.967Z,99086.16
2023-08-15T23:53:48.803Z,99085.00
2023-08-15T23:56:15.984Z,99090.50
2023-08-15T23:58:43.548Z,99083.41
